sensor_id;sensor_type;location;lat;lon;timestamp;temperature;humidity
11639;DHT22;5875;35.940;126.892;2022-07-22T00:00:54;29.90;99.90
11639;DHT22;5875;35.940;126.892;2022-07-22T00:03:21;29.90;99.90
11639;DHT22;5875;35.940;126.892;2022-07-22T00:05:49;29.90;99.90
11639;DHT22;5875;35.940;126.892;2022-07-22T00:08:16;30.00;99.90
11639;DHT22;5875;35.940;126.892;2022-07-22T00:10:43;30.10;99.90
11639;DHT22;5875;35.940;126.892;2022-07-22T00:13:10;30.40;99.90
11639;DHT22;5875;35.940;126.892;2022-07-22T00:15:37;30.60;99.90
11639;DHT22;5875;35.940;126.892;2022-07-22T00:18:05;30.80;99.90
11639;DHT22;5875;35.940;126.892;2022-07-22T00:20:32;31.00;99.90
11639;DHT22;5875;35.940;126.892;2022-07-22T00:22:59;31.10;99.90
11639;DHT22;5875;35.940;126.892;2022-07-22T00:25:26;31.20;99.90
11639;DHT22;5875;35.940;126.892;2022-07-22T00:27:55;31.40;99.90
11639;DHT22;5875;35.940;126.892;2022-07-22T00:30:22;31.40;99.90
11639;DHT22;5875;35.940;126.892;2022-07-22T00:32:49;31.20;99.90
11639;DHT22;5875;35.940;126.892;2022-07-22T00:35:17;31.10;99.90
11639;DHT22;5875;35.940;126.892;2022-07-22T00:37:44;31.30;99.90
11639;DHT22;5875;35.940;126.892;2022-07-22T00:40:11;31.30;99.90
11639;DHT22;5875;35.940;126.892;2022-07-22T00:42:39;31.10;99.90
11639;DHT22;5875;35.940;126.892;2022-07-22T00:45:07;31.10;99.90
11639;DHT22;5875;35.940;126.892;2022-07-22T00:47:35;31.30;99.90
11639;DHT22;5875;35.940;126.892;2022-07-22T00:50:02;31.30;99.90
11639;DHT22;5875;35.940;126.892;2022-07-22T00:52:30;31.40;99.90
11639;DHT22;5875;35.940;126.892;2022-07-22T00:54:59;31.60;99.90
11639;DHT22;5875;35.940;126.892;2022-07-22T00:57:27;31.60;99.90
11639;DHT22;5875;35.940;126.892;2022-07-22T00:59:54;31.50;99.90
11639;DHT22;5875;35.940;126.892;2022-07-22T01:02:22;31.30;99.90
11639;DHT22;5875;35.940;126.892;2022-07-22T01:04:49;31.30;99.90
11639;DHT22;5875;35.940;126.892;2022-07-22T01:07:16;31.20;99.90
11639;DHT22;5875;35.940;126.892;2022-07-22T01:09:44;30.90;99.90
11639;DHT22;5875;35.940;126.892;2022-07-22T01:12:12;30.80;99.90
11639;DHT22;5875;35.940;126.892;2022-07-22T01:14:39;30.80;99.90
11639;DHT22;5875;35.940;126.892;2022-07-22T01:17:07;30.70;99.90
11639;DHT22;5875;35.940;126.892;2022-07-22T01:19:36;30.50;99.90
11639;DHT22;5875;35.940;126.892;2022-07-22T01:22:05;30.30;99.90
11639;DHT22;5875;35.940;126.892;2022-07-22T01:24:33;30.20;99.90
11639;DHT22;5875;35.940;126.892;2022-07-22T01:27:00;30.00;99.90
11639;DHT22;5875;35.940;126.892;2022-07-22T01:29:27;29.90;99.90
11639;DHT22;5875;35.940;126.892;2022-07-22T01:31:54;29.80;99.90
11639;DHT22;5875;35.940;126.892;2022-07-22T01:34:23;29.70;99.90
11639;DHT22;5875;35.940;126.892;2022-07-22T01:36:50;29.60;99.90
11639;DHT22;5875;35.940;126.892;2022-07-22T01:39:17;29.50;99.90
11639;DHT22;5875;35.940;126.892;2022-07-22T01:41:45;29.50;99.90
11639;DHT22;5875;35.940;126.892;2022-07-22T01:44:12;29.70;99.90
11639;DHT22;5875;35.940;126.892;2022-07-22T01:46:39;30.30;99.90
11639;DHT22;5875;35.940;126.892;2022-07-22T01:49:06;30.90;99.90
11639;DHT22;5875;35.940;126.892;2022-07-22T01:51:33;31.40;99.90
11639;DHT22;5875;35.940;126.892;2022-07-22T01:54:01;31.50;99.90
11639;DHT22;5875;35.940;126.892;2022-07-22T01:56:28;31.50;99.90
11639;DHT22;5875;35.940;126.892;2022-07-22T01:58:55;31.30;99.90
11639;DHT22;5875;35.940;126.892;2022-07-22T02:01:22;31.60;99.90
11639;DHT22;5875;35.940;126.892;2022-07-22T02:03:51;32.00;99.90
11639;DHT22;5875;35.940;126.892;2022-07-22T02:06:18;32.60;99.90
11639;DHT22;5875;35.940;126.892;2022-07-22T02:08:45;32.90;99.90
11639;DHT22;5875;35.940;126.892;2022-07-22T02:11:12;32.70;99.90
11639;DHT22;5875;35.940;126.892;2022-07-22T02:13:39;33.00;99.90
11639;DHT22;5875;35.940;126.892;2022-07-22T02:16:07;32.60;99.90
11639;DHT22;5875;35.940;126.892;2022-07-22T02:18:34;32.10;99.90
11639;DHT22;5875;35.940;126.892;2022-07-22T02:21:01;32.20;99.90
11639;DHT22;5875;35.940;126.892;2022-07-22T02:23:28;32.10;99.90
11639;DHT22;5875;35.940;126.892;2022-07-22T02:25:55;31.90;99.90
11639;DHT22;5875;35.940;126.892;2022-07-22T02:28:23;31.60;99.90
11639;DHT22;5875;35.940;126.892;2022-07-22T02:30:50;31.30;99.90
11639;DHT22;5875;35.940;126.892;2022-07-22T02:33:17;31.00;99.90
11639;DHT22;5875;35.940;126.892;2022-07-22T02:35:44;31.40;99.90
11639;DHT22;5875;35.940;126.892;2022-07-22T02:38:12;32.20;99.90
11639;DHT22;5875;35.940;126.892;2022-07-22T02:40:39;32.80;99.90
11639;DHT22;5875;35.940;126.892;2022-07-22T02:43:06;32.90;99.90
11639;DHT22;5875;35.940;126.892;2022-07-22T02:45:33;33.40;99.90
11639;DHT22;5875;35.940;126.892;2022-07-22T02:48:01;33.70;99.90
11639;DHT22;5875;35.940;126.892;2022-07-22T02:50:28;34.10;99.90
11639;DHT22;5875;35.940;126.892;2022-07-22T02:52:55;34.20;99.90
11639;DHT22;5875;35.940;126.892;2022-07-22T02:55:22;34.40;99.90
11639;DHT22;5875;35.940;126.892;2022-07-22T02:57:49;34.40;99.90
11639;DHT22;5875;35.940;126.892;2022-07-22T03:00:17;33.90;99.90
11639;DHT22;5875;35.940;126.892;2022-07-22T03:02:44;34.40;99.90
11639;DHT22;5875;35.940;126.892;2022-07-22T03:05:11;34.70;99.90
11639;DHT22;5875;35.940;126.892;2022-07-22T03:07:39;34.90;99.90
11639;DHT22;5875;35.940;126.892;2022-07-22T03:10:06;35.10;99.90
11639;DHT22;5875;35.940;126.892;2022-07-22T03:12:34;35.30;99.90
11639;DHT22;5875;35.940;126.892;2022-07-22T03:15:02;35.50;99.90
11639;DHT22;5875;35.940;126.892;2022-07-22T03:17:32;35.70;99.90
11639;DHT22;5875;35.940;126.892;2022-07-22T03:20:02;35.80;99.90
11639;DHT22;5875;35.940;126.892;2022-07-22T03:22:30;35.90;99.90
11639;DHT22;5875;35.940;126.892;2022-07-22T03:24:57;35.70;99.90
11639;DHT22;5875;35.940;126.892;2022-07-22T03:27:24;35.90;99.90
11639;DHT22;5875;35.940;126.892;2022-07-22T03:29:52;35.90;99.90
11639;DHT22;5875;35.940;126.892;2022-07-22T03:32:19;36.10;99.90
11639;DHT22;5875;35.940;126.892;2022-07-22T03:34:46;36.20;99.90
11639;DHT22;5875;35.940;126.892;2022-07-22T03:37:13;36.30;99.90
11639;DHT22;5875;35.940;126.892;2022-07-22T03:39:41;36.30;99.90
11639;DHT22;5875;35.940;126.892;2022-07-22T03:42:08;36.30;99.90
11639;DHT22;5875;35.940;126.892;2022-07-22T03:44:35;36.10;99.90
11639;DHT22;5875;35.940;126.892;2022-07-22T03:47:02;36.30;99.90
11639;DHT22;5875;35.940;126.892;2022-07-22T03:49:31;36.50;99.90
11639;DHT22;5875;35.940;126.892;2022-07-22T03:51:58;36.50;99.90
11639;DHT22;5875;35.940;126.892;2022-07-22T03:54:25;36.60;99.90
11639;DHT22;5875;35.940;126.892;2022-07-22T03:56:53;36.70;99.90
11639;DHT22;5875;35.940;126.892;2022-07-22T03:59:20;36.70;99.90
11639;DHT22;5875;35.940;126.892;2022-07-22T04:01:47;36.60;99.90
11639;DHT22;5875;35.940;126.892;2022-07-22T04:04:14;36.60;99.90
11639;DHT22;5875;35.940;126.892;2022-07-22T04:06:41;36.50;99.90
11639;DHT22;5875;35.940;126.892;2022-07-22T04:09:08;36.40;99.90
11639;DHT22;5875;35.940;126.892;2022-07-22T04:11:35;36.50;99.90
11639;DHT22;5875;35.940;126.892;2022-07-22T04:14:03;36.30;99.90
11639;DHT22;5875;35.940;126.892;2022-07-22T04:16:30;36.20;99.90
11639;DHT22;5875;35.940;126.892;2022-07-22T04:18:57;36.20;99.90
11639;DHT22;5875;35.940;126.892;2022-07-22T04:21:24;35.80;99.90
11639;DHT22;5875;35.940;126.892;2022-07-22T04:23:51;35.50;99.90
11639;DHT22;5875;35.940;126.892;2022-07-22T04:26:18;35.80;99.90
11639;DHT22;5875;35.940;126.892;2022-07-22T04:28:46;36.00;99.90
11639;DHT22;5875;35.940;126.892;2022-07-22T04:31:13;36.00;99.90
11639;DHT22;5875;35.940;126.892;2022-07-22T04:33:41;35.90;99.90
11639;DHT22;5875;35.940;126.892;2022-07-22T04:36:08;35.10;99.90
11639;DHT22;5875;35.940;126.892;2022-07-22T04:38:35;35.00;99.90
11639;DHT22;5875;35.940;126.892;2022-07-22T04:41:03;35.10;99.90
11639;DHT22;5875;35.940;126.892;2022-07-22T04:43:30;35.50;99.90
11639;DHT22;5875;35.940;126.892;2022-07-22T04:45:57;35.60;99.90
11639;DHT22;5875;35.940;126.892;2022-07-22T04:48:25;35.80;99.90
11639;DHT22;5875;35.940;126.892;2022-07-22T04:50:52;35.70;99.90
11639;DHT22;5875;35.940;126.892;2022-07-22T04:53:19;35.80;99.90
11639;DHT22;5875;35.940;126.892;2022-07-22T04:55:46;35.90;99.90
11639;DHT22;5875;35.940;126.892;2022-07-22T04:58:13;35.90;99.90
11639;DHT22;5875;35.940;126.892;2022-07-22T05:00:40;36.00;99.90
11639;DHT22;5875;35.940;126.892;2022-07-22T05:03:08;36.00;99.90
11639;DHT22;5875;35.940;126.892;2022-07-22T05:05:35;35.90;99.90
11639;DHT22;5875;35.940;126.892;2022-07-22T05:08:02;35.80;99.90
11639;DHT22;5875;35.940;126.892;2022-07-22T05:10:30;35.70;99.90
11639;DHT22;5875;35.940;126.892;2022-07-22T05:12:59;35.80;99.90
11639;DHT22;5875;35.940;126.892;2022-07-22T05:15:26;35.50;99.90
11639;DHT22;5875;35.940;126.892;2022-07-22T05:17:53;35.60;99.90
11639;DHT22;5875;35.940;126.892;2022-07-22T05:20:20;35.40;99.90
11639;DHT22;5875;35.940;126.892;2022-07-22T05:22:48;35.50;99.90
11639;DHT22;5875;35.940;126.892;2022-07-22T05:25:15;35.60;99.90
11639;DHT22;5875;35.940;126.892;2022-07-22T05:28:00;35.50;99.90
11639;DHT22;5875;35.940;126.892;2022-07-22T05:30:27;35.50;99.90
11639;DHT22;5875;35.940;126.892;2022-07-22T05:32:54;35.30;99.90
11639;DHT22;5875;35.940;126.892;2022-07-22T05:35:21;35.40;99.90
11639;DHT22;5875;35.940;126.892;2022-07-22T05:37:49;35.50;99.90
11639;DHT22;5875;35.940;126.892;2022-07-22T05:40:16;35.40;99.90
11639;DHT22;5875;35.940;126.892;2022-07-22T05:42:43;35.50;99.90
11639;DHT22;5875;35.940;126.892;2022-07-22T05:45:10;35.60;99.90
11639;DHT22;5875;35.940;126.892;2022-07-22T05:47:37;35.30;99.90
11639;DHT22;5875;35.940;126.892;2022-07-22T05:50:05;34.50;99.90
11639;DHT22;5875;35.940;126.892;2022-07-22T05:52:36;34.60;99.90
11639;DHT22;5875;35.940;126.892;2022-07-22T05:55:03;34.00;99.90
11639;DHT22;5875;35.940;126.892;2022-07-22T05:57:31;33.50;99.90
11639;DHT22;5875;35.940;126.892;2022-07-22T05:59:58;33.60;99.90
11639;DHT22;5875;35.940;126.892;2022-07-22T06:02:25;33.60;99.90
11639;DHT22;5875;35.940;126.892;2022-07-22T06:04:52;33.60;99.90
11639;DHT22;5875;35.940;126.892;2022-07-22T06:07:21;33.80;99.90
11639;DHT22;5875;35.940;126.892;2022-07-22T06:09:48;33.90;99.90
11639;DHT22;5875;35.940;126.892;2022-07-22T06:12:15;33.10;99.90
11639;DHT22;5875;35.940;126.892;2022-07-22T06:14:43;33.00;99.90
11639;DHT22;5875;35.940;126.892;2022-07-22T06:17:10;33.30;99.90
11639;DHT22;5875;35.940;126.892;2022-07-22T06:19:37;33.00;99.90
11639;DHT22;5875;35.940;126.892;2022-07-22T06:22:05;32.80;99.90
11639;DHT22;5875;35.940;126.892;2022-07-22T06:24:32;33.00;99.90
11639;DHT22;5875;35.940;126.892;2022-07-22T06:26:59;33.10;99.90
11639;DHT22;5875;35.940;126.892;2022-07-22T06:29:26;33.10;99.90
11639;DHT22;5875;35.940;126.892;2022-07-22T06:31:53;33.20;99.90
11639;DHT22;5875;35.940;126.892;2022-07-22T06:34:21;33.10;99.90
11639;DHT22;5875;35.940;126.892;2022-07-22T06:36:48;32.70;99.90
11639;DHT22;5875;35.940;126.892;2022-07-22T06:39:15;32.80;99.90
11639;DHT22;5875;35.940;126.892;2022-07-22T06:41:43;32.90;99.90
11639;DHT22;5875;35.940;126.892;2022-07-22T06:44:10;33.00;99.90
11639;DHT22;5875;35.940;126.892;2022-07-22T06:46:37;32.50;99.90
11639;DHT22;5875;35.940;126.892;2022-07-22T06:49:05;32.30;99.90
11639;DHT22;5875;35.940;126.892;2022-07-22T06:51:33;31.80;99.90
11639;DHT22;5875;35.940;126.892;2022-07-22T06:54:00;31.60;99.90
11639;DHT22;5875;35.940;126.892;2022-07-22T06:56:28;32.00;99.90
11639;DHT22;5875;35.940;126.892;2022-07-22T06:58:55;32.30;99.90
11639;DHT22;5875;35.940;126.892;2022-07-22T07:01:22;31.90;99.90
11639;DHT22;5875;35.940;126.892;2022-07-22T07:03:49;31.50;99.90
11639;DHT22;5875;35.940;126.892;2022-07-22T07:06:16;31.40;99.90
11639;DHT22;5875;35.940;126.892;2022-07-22T07:08:43;31.60;99.90
11639;DHT22;5875;35.940;126.892;2022-07-22T07:11:10;31.70;99.90
11639;DHT22;5875;35.940;126.892;2022-07-22T07:13:38;31.70;99.90
11639;DHT22;5875;35.940;126.892;2022-07-22T07:16:05;31.60;99.90
11639;DHT22;5875;35.940;126.892;2022-07-22T07:18:33;31.50;99.90
11639;DHT22;5875;35.940;126.892;2022-07-22T07:21:00;31.40;99.90
11639;DHT22;5875;35.940;126.892;2022-07-22T07:23:27;31.20;99.90
11639;DHT22;5875;35.940;126.892;2022-07-22T07:25:54;31.10;99.90
11639;DHT22;5875;35.940;126.892;2022-07-22T07:28:21;31.00;99.90
11639;DHT22;5875;35.940;126.892;2022-07-22T07:30:49;30.90;99.90
11639;DHT22;5875;35.940;126.892;2022-07-22T07:33:16;30.80;99.90
11639;DHT22;5875;35.940;126.892;2022-07-22T07:35:43;30.70;99.90
11639;DHT22;5875;35.940;126.892;2022-07-22T07:38:11;30.70;99.90
11639;DHT22;5875;35.940;126.892;2022-07-22T07:40:38;30.60;99.90
11639;DHT22;5875;35.940;126.892;2022-07-22T07:43:05;30.60;99.90
11639;DHT22;5875;35.940;126.892;2022-07-22T07:45:32;30.40;99.90
11639;DHT22;5875;35.940;126.892;2022-07-22T07:48:00;30.40;99.90
11639;DHT22;5875;35.940;126.892;2022-07-22T07:50:28;30.40;99.90
11639;DHT22;5875;35.940;126.892;2022-07-22T07:52:56;30.30;99.90
11639;DHT22;5875;35.940;126.892;2022-07-22T07:55:24;30.20;99.90
11639;DHT22;5875;35.940;126.892;2022-07-22T07:57:51;30.20;99.90
11639;DHT22;5875;35.940;126.892;2022-07-22T08:00:22;30.20;99.90
11639;DHT22;5875;35.940;126.892;2022-07-22T08:02:50;30.20;99.90
11639;DHT22;5875;35.940;126.892;2022-07-22T08:05:17;30.10;99.90
11639;DHT22;5875;35.940;126.892;2022-07-22T08:07:46;30.10;99.90
11639;DHT22;5875;35.940;126.892;2022-07-22T08:10:13;30.10;99.90
11639;DHT22;5875;35.940;126.892;2022-07-22T08:12:40;30.10;99.90
11639;DHT22;5875;35.940;126.892;2022-07-22T08:15:08;30.00;99.90
11639;DHT22;5875;35.940;126.892;2022-07-22T08:17:36;29.90;99.90
11639;DHT22;5875;35.940;126.892;2022-07-22T08:20:04;29.90;99.90
11639;DHT22;5875;35.940;126.892;2022-07-22T08:22:32;29.80;99.90
11639;DHT22;5875;35.940;126.892;2022-07-22T08:24:59;29.80;99.90
11639;DHT22;5875;35.940;126.892;2022-07-22T08:27:26;29.80;99.90
11639;DHT22;5875;35.940;126.892;2022-07-22T08:29:54;29.70;99.90
11639;DHT22;5875;35.940;126.892;2022-07-22T08:32:21;29.60;99.90
11639;DHT22;5875;35.940;126.892;2022-07-22T08:34:48;29.50;99.90
11639;DHT22;5875;35.940;126.892;2022-07-22T08:37:17;29.40;99.90
11639;DHT22;5875;35.940;126.892;2022-07-22T08:39:44;29.40;99.90
11639;DHT22;5875;35.940;126.892;2022-07-22T08:42:11;29.40;99.90
11639;DHT22;5875;35.940;126.892;2022-07-22T08:44:40;29.40;99.90
11639;DHT22;5875;35.940;126.892;2022-07-22T08:47:07;29.30;99.90
11639;DHT22;5875;35.940;126.892;2022-07-22T08:49:35;29.30;99.90
11639;DHT22;5875;35.940;126.892;2022-07-22T08:52:02;29.20;99.90
11639;DHT22;5875;35.940;126.892;2022-07-22T08:54:29;29.20;99.90
11639;DHT22;5875;35.940;126.892;2022-07-22T08:56:57;29.10;99.90
11639;DHT22;5875;35.940;126.892;2022-07-22T08:59:25;29.10;99.90
11639;DHT22;5875;35.940;126.892;2022-07-22T09:02:18;29.00;99.90
11639;DHT22;5875;35.940;126.892;2022-07-22T09:04:54;28.90;99.90
11639;DHT22;5875;35.940;126.892;2022-07-22T09:07:34;28.90;99.90
11639;DHT22;5875;35.940;126.892;2022-07-22T09:10:08;28.80;99.90
11639;DHT22;5875;35.940;126.892;2022-07-22T09:12:51;28.80;99.90
11639;DHT22;5875;35.940;126.892;2022-07-22T09:15:37;28.80;99.90
11639;DHT22;5875;35.940;126.892;2022-07-22T09:18:07;28.80;99.90
11639;DHT22;5875;35.940;126.892;2022-07-22T09:20:36;28.70;99.90
11639;DHT22;5875;35.940;126.892;2022-07-22T09:23:15;28.60;99.90
11639;DHT22;5875;35.940;126.892;2022-07-22T09:25:44;28.50;99.90
11639;DHT22;5875;35.940;126.892;2022-07-22T09:28:16;28.50;99.90
11639;DHT22;5875;35.940;126.892;2022-07-22T09:30:50;28.40;99.90
11639;DHT22;5875;35.940;126.892;2022-07-22T09:33:18;28.40;99.90
11639;DHT22;5875;35.940;126.892;2022-07-22T09:35:46;28.30;99.90
11639;DHT22;5875;35.940;126.892;2022-07-22T09:38:16;28.30;99.90
11639;DHT22;5875;35.940;126.892;2022-07-22T09:40:46;28.30;99.90
11639;DHT22;5875;35.940;126.892;2022-07-22T09:43:18;28.30;99.90
11639;DHT22;5875;35.940;126.892;2022-07-22T09:45:57;28.30;99.90
11639;DHT22;5875;35.940;126.892;2022-07-22T09:48:25;28.20;99.90
11639;DHT22;5875;35.940;126.892;2022-07-22T09:50:54;28.20;99.90
11639;DHT22;5875;35.940;126.892;2022-07-22T09:53:25;28.20;99.90
11639;DHT22;5875;35.940;126.892;2022-07-22T09:55:54;28.10;99.90
11639;DHT22;5875;35.940;126.892;2022-07-22T09:58:21;28.10;99.90
11639;DHT22;5875;35.940;126.892;2022-07-22T10:00:49;28.10;99.90
11639;DHT22;5875;35.940;126.892;2022-07-22T10:03:28;28.20;99.90
11639;DHT22;5875;35.940;126.892;2022-07-22T10:05:57;28.20;99.90
11639;DHT22;5875;35.940;126.892;2022-07-22T10:08:26;28.10;99.90
11639;DHT22;5875;35.940;126.892;2022-07-22T10:10:54;28.10;99.90
11639;DHT22;5875;35.940;126.892;2022-07-22T10:13:24;28.10;99.90
11639;DHT22;5875;35.940;126.892;2022-07-22T10:15:53;28.10;99.90
11639;DHT22;5875;35.940;126.892;2022-07-22T10:18:22;28.10;99.90
11639;DHT22;5875;35.940;126.892;2022-07-22T10:21:05;28.00;99.90
11639;DHT22;5875;35.940;126.892;2022-07-22T10:23:33;28.00;99.90
11639;DHT22;5875;35.940;126.892;2022-07-22T10:26:02;28.00;99.90
11639;DHT22;5875;35.940;126.892;2022-07-22T10:31:19;27.90;99.90
11639;DHT22;5875;35.940;126.892;2022-07-22T10:33:53;27.80;99.90
11639;DHT22;5875;35.940;126.892;2022-07-22T10:36:37;27.80;99.90
11639;DHT22;5875;35.940;126.892;2022-07-22T10:39:10;27.70;99.90
11639;DHT22;5875;35.940;126.892;2022-07-22T10:41:43;27.70;99.90
11639;DHT22;5875;35.940;126.892;2022-07-22T10:44:11;27.70;99.90
11639;DHT22;5875;35.940;126.892;2022-07-22T10:46:55;27.70;99.90
11639;DHT22;5875;35.940;126.892;2022-07-22T10:49:26;27.60;99.90
11639;DHT22;5875;35.940;126.892;2022-07-22T10:52:11;27.60;99.90
11639;DHT22;5875;35.940;126.892;2022-07-22T10:55:20;27.60;99.90
11639;DHT22;5875;35.940;126.892;2022-07-22T10:57:48;27.50;99.90
11639;DHT22;5875;35.940;126.892;2022-07-22T11:00:15;27.50;99.90
11639;DHT22;5875;35.940;126.892;2022-07-22T11:02:43;27.50;99.90
11639;DHT22;5875;35.940;126.892;2022-07-22T11:05:10;27.50;99.90
11639;DHT22;5875;35.940;126.892;2022-07-22T11:07:47;27.40;99.90
11639;DHT22;5875;35.940;126.892;2022-07-22T11:10:16;27.40;99.90
11639;DHT22;5875;35.940;126.892;2022-07-22T11:12:45;27.30;99.90
11639;DHT22;5875;35.940;126.892;2022-07-22T11:15:12;27.20;99.90
11639;DHT22;5875;35.940;126.892;2022-07-22T11:17:40;27.10;99.90
11639;DHT22;5875;35.940;126.892;2022-07-22T11:20:10;27.00;99.90
11639;DHT22;5875;35.940;126.892;2022-07-22T11:22:38;26.90;99.90
11639;DHT22;5875;35.940;126.892;2022-07-22T11:25:07;26.90;99.90
11639;DHT22;5875;35.940;126.892;2022-07-22T11:27:35;26.90;99.90
11639;DHT22;5875;35.940;126.892;2022-07-22T11:30:04;26.90;99.90
11639;DHT22;5875;35.940;126.892;2022-07-22T11:32:40;26.80;99.90
11639;DHT22;5875;35.940;126.892;2022-07-22T11:35:11;26.80;99.90
11639;DHT22;5875;35.940;126.892;2022-07-22T11:37:39;26.80;99.90
11639;DHT22;5875;35.940;126.892;2022-07-22T11:40:08;26.70;99.90
11639;DHT22;5875;35.940;126.892;2022-07-22T11:42:36;26.70;99.90
11639;DHT22;5875;35.940;126.892;2022-07-22T11:45:04;26.70;99.90
11639;DHT22;5875;35.940;126.892;2022-07-22T11:47:31;26.60;99.90
11639;DHT22;5875;35.940;126.892;2022-07-22T11:49:58;26.60;99.90
11639;DHT22;5875;35.940;126.892;2022-07-22T11:52:26;26.50;99.90
11639;DHT22;5875;35.940;126.892;2022-07-22T11:54:53;26.50;99.90
11639;DHT22;5875;35.940;126.892;2022-07-22T11:57:20;26.30;99.90
11639;DHT22;5875;35.940;126.892;2022-07-22T11:59:47;26.30;99.90
11639;DHT22;5875;35.940;126.892;2022-07-22T12:02:15;26.30;99.90
11639;DHT22;5875;35.940;126.892;2022-07-22T12:04:43;26.30;99.90
11639;DHT22;5875;35.940;126.892;2022-07-22T12:07:12;26.20;99.90
11639;DHT22;5875;35.940;126.892;2022-07-22T12:09:40;26.10;99.90
11639;DHT22;5875;35.940;126.892;2022-07-22T12:12:08;26.00;99.90
11639;DHT22;5875;35.940;126.892;2022-07-22T12:14:36;26.00;99.90
11639;DHT22;5875;35.940;126.892;2022-07-22T12:17:08;26.00;99.90
11639;DHT22;5875;35.940;126.892;2022-07-22T12:19:37;25.90;99.90
11639;DHT22;5875;35.940;126.892;2022-07-22T12:22:10;26.00;99.90
11639;DHT22;5875;35.940;126.892;2022-07-22T12:24:42;26.10;99.90
11639;DHT22;5875;35.940;126.892;2022-07-22T12:27:17;26.10;99.90
11639;DHT22;5875;35.940;126.892;2022-07-22T12:29:46;26.10;99.90
11639;DHT22;5875;35.940;126.892;2022-07-22T12:37:28;26.10;99.90
11639;DHT22;5875;35.940;126.892;2022-07-22T12:40:06;26.20;99.90
11639;DHT22;5875;35.940;126.892;2022-07-22T12:42:39;26.00;99.90
11639;DHT22;5875;35.940;126.892;2022-07-22T12:45:12;26.00;99.90
11639;DHT22;5875;35.940;126.892;2022-07-22T12:47:56;25.90;99.90
11639;DHT22;5875;35.940;126.892;2022-07-22T12:50:39;25.90;99.90
11639;DHT22;5875;35.940;126.892;2022-07-22T12:55:41;26.00;99.90
11639;DHT22;5875;35.940;126.892;2022-07-22T12:58:08;26.00;99.90
11639;DHT22;5875;35.940;126.892;2022-07-22T13:00:40;26.00;99.90
11639;DHT22;5875;35.940;126.892;2022-07-22T13:03:08;26.00;99.90
11639;DHT22;5875;35.940;126.892;2022-07-22T13:05:35;26.00;99.90
11639;DHT22;5875;35.940;126.892;2022-07-22T13:08:04;26.00;99.90
11639;DHT22;5875;35.940;126.892;2022-07-22T13:10:31;26.00;99.90
11639;DHT22;5875;35.940;126.892;2022-07-22T13:12:58;26.00;99.90
11639;DHT22;5875;35.940;126.892;2022-07-22T13:15:26;26.00;99.90
11639;DHT22;5875;35.940;126.892;2022-07-22T13:17:53;26.00;99.90
11639;DHT22;5875;35.940;126.892;2022-07-22T13:20:20;26.00;99.90
11639;DHT22;5875;35.940;126.892;2022-07-22T13:22:48;26.00;99.90
11639;DHT22;5875;35.940;126.892;2022-07-22T13:25:15;25.90;99.90
11639;DHT22;5875;35.940;126.892;2022-07-22T13:27:42;26.00;99.90
11639;DHT22;5875;35.940;126.892;2022-07-22T13:30:10;26.00;99.90
11639;DHT22;5875;35.940;126.892;2022-07-22T13:32:37;26.00;99.90
11639;DHT22;5875;35.940;126.892;2022-07-22T13:35:05;26.00;99.90
11639;DHT22;5875;35.940;126.892;2022-07-22T13:37:32;25.90;99.90
11639;DHT22;5875;35.940;126.892;2022-07-22T13:40:02;25.90;99.90
11639;DHT22;5875;35.940;126.892;2022-07-22T13:42:29;25.90;99.90
11639;DHT22;5875;35.940;126.892;2022-07-22T13:44:56;25.90;99.90
11639;DHT22;5875;35.940;126.892;2022-07-22T13:47:24;25.80;99.90
11639;DHT22;5875;35.940;126.892;2022-07-22T13:49:53;25.80;99.90
11639;DHT22;5875;35.940;126.892;2022-07-22T13:52:20;25.80;99.90
11639;DHT22;5875;35.940;126.892;2022-07-22T13:54:47;25.80;99.90
11639;DHT22;5875;35.940;126.892;2022-07-22T13:57:16;25.80;99.90
11639;DHT22;5875;35.940;126.892;2022-07-22T13:59:44;25.80;99.90
11639;DHT22;5875;35.940;126.892;2022-07-22T14:02:11;25.70;99.90
11639;DHT22;5875;35.940;126.892;2022-07-22T14:04:38;25.70;99.90
11639;DHT22;5875;35.940;126.892;2022-07-22T14:07:06;25.70;99.90
11639;DHT22;5875;35.940;126.892;2022-07-22T14:09:33;25.60;99.90
11639;DHT22;5875;35.940;126.892;2022-07-22T14:12:00;25.60;99.90
11639;DHT22;5875;35.940;126.892;2022-07-22T14:14:27;25.60;99.90
11639;DHT22;5875;35.940;126.892;2022-07-22T14:16:54;25.60;99.90
11639;DHT22;5875;35.940;126.892;2022-07-22T14:19:22;25.50;99.90
11639;DHT22;5875;35.940;126.892;2022-07-22T14:21:49;25.50;99.90
11639;DHT22;5875;35.940;126.892;2022-07-22T14:24:16;25.50;99.90
11639;DHT22;5875;35.940;126.892;2022-07-22T14:26:43;25.50;99.90
11639;DHT22;5875;35.940;126.892;2022-07-22T14:29:10;25.50;99.90
11639;DHT22;5875;35.940;126.892;2022-07-22T14:31:38;25.50;99.90
11639;DHT22;5875;35.940;126.892;2022-07-22T14:34:05;25.50;99.90
11639;DHT22;5875;35.940;126.892;2022-07-22T14:36:32;25.30;99.90
11639;DHT22;5875;35.940;126.892;2022-07-22T14:38:59;25.30;99.90
11639;DHT22;5875;35.940;126.892;2022-07-22T14:41:26;25.20;99.90
11639;DHT22;5875;35.940;126.892;2022-07-22T14:43:53;25.20;99.90
11639;DHT22;5875;35.940;126.892;2022-07-22T14:46:21;25.30;99.90
11639;DHT22;5875;35.940;126.892;2022-07-22T14:48:48;25.20;99.90
11639;DHT22;5875;35.940;126.892;2022-07-22T14:51:20;25.20;99.90
11639;DHT22;5875;35.940;126.892;2022-07-22T14:53:47;25.20;99.90
11639;DHT22;5875;35.940;126.892;2022-07-22T14:56:15;25.20;99.90
11639;DHT22;5875;35.940;126.892;2022-07-22T14:58:42;25.20;99.90
11639;DHT22;5875;35.940;126.892;2022-07-22T15:01:09;25.30;99.90
11639;DHT22;5875;35.940;126.892;2022-07-22T15:03:36;25.30;99.90
11639;DHT22;5875;35.940;126.892;2022-07-22T15:06:04;25.30;99.90
11639;DHT22;5875;35.940;126.892;2022-07-22T15:08:31;25.30;99.90
11639;DHT22;5875;35.940;126.892;2022-07-22T15:10:58;25.30;99.90
11639;DHT22;5875;35.940;126.892;2022-07-22T15:13:27;25.20;99.90
11639;DHT22;5875;35.940;126.892;2022-07-22T15:15:55;25.30;99.90
11639;DHT22;5875;35.940;126.892;2022-07-22T15:18:23;25.20;99.90
11639;DHT22;5875;35.940;126.892;2022-07-22T15:20:50;25.00;99.90
11639;DHT22;5875;35.940;126.892;2022-07-22T15:23:24;24.80;99.90
11639;DHT22;5875;35.940;126.892;2022-07-22T15:25:58;24.80;99.90
11639;DHT22;5875;35.940;126.892;2022-07-22T15:28:26;24.90;99.90
11639;DHT22;5875;35.940;126.892;2022-07-22T15:30:56;25.00;99.90
11639;DHT22;5875;35.940;126.892;2022-07-22T15:33:24;25.00;99.90